sensor_id;sensor_type;location;lat;lon;timestamp;P1;durP1;ratioP1;P2;durP2;ratioP2
18612;SDS011;9436;52.152;21.032;2023-02-28T00:00:12;11.77;;;8.77;;
18612;SDS011;9436;52.152;21.032;2023-02-28T00:02:40;10.47;;;8.47;;
18612;SDS011;9436;52.152;21.032;2023-02-28T00:05:09;10.53;;;8.37;;
18612;SDS011;9436;52.152;21.032;2023-02-28T00:07:37;11.77;;;8.70;;
18612;SDS011;9436;52.152;21.032;2023-02-28T00:10:05;11.37;;;8.57;;
18612;SDS011;9436;52.152;21.032;2023-02-28T00:12:35;12.00;;;8.80;;
18612;SDS011;9436;52.152;21.032;2023-02-28T00:15:07;10.80;;;8.73;;
18612;SDS011;9436;52.152;21.032;2023-02-28T00:17:36;13.47;;;9.07;;
18612;SDS011;9436;52.152;21.032;2023-02-28T00:20:04;13.03;;;9.67;;
18612;SDS011;9436;52.152;21.032;2023-02-28T00:22:33;15.73;;;9.30;;
18612;SDS011;9436;52.152;21.032;2023-02-28T00:25:00;12.67;;;9.80;;
18612;SDS011;9436;52.152;21.032;2023-02-28T00:27:27;13.03;;;10.10;;
18612;SDS011;9436;52.152;21.032;2023-02-28T00:29:56;14.13;;;10.63;;
18612;SDS011;9436;52.152;21.032;2023-02-28T00:32:23;14.27;;;10.50;;
18612;SDS011;9436;52.152;21.032;2023-02-28T00:34:50;16.00;;;11.20;;
18612;SDS011;9436;52.152;21.032;2023-02-28T00:37:17;16.03;;;10.63;;
18612;SDS011;9436;52.152;21.032;2023-02-28T00:39:44;16.10;;;10.93;;
18612;SDS011;9436;52.152;21.032;2023-02-28T00:42:11;13.63;;;10.97;;
18612;SDS011;9436;52.152;21.032;2023-02-28T00:44:38;18.27;;;12.07;;
18612;SDS011;9436;52.152;21.032;2023-02-28T00:47:07;17.40;;;12.23;;
18612;SDS011;9436;52.152;21.032;2023-02-28T00:49:34;17.20;;;12.20;;
18612;SDS011;9436;52.152;21.032;2023-02-28T00:52:01;17.63;;;12.70;;
18612;SDS011;9436;52.152;21.032;2023-02-28T00:54:28;17.03;;;12.80;;
18612;SDS011;9436;52.152;21.032;2023-02-28T00:56:55;18.37;;;13.43;;
18612;SDS011;9436;52.152;21.032;2023-02-28T00:59:23;19.03;;;14.10;;
18612;SDS011;9436;52.152;21.032;2023-02-28T01:01:50;19.63;;;13.83;;
18612;SDS011;9436;52.152;21.032;2023-02-28T01:04:18;18.80;;;13.57;;
18612;SDS011;9436;52.152;21.032;2023-02-28T01:06:45;21.73;;;14.13;;
18612;SDS011;9436;52.152;21.032;2023-02-28T01:09:12;21.33;;;13.97;;
18612;SDS011;9436;52.152;21.032;2023-02-28T01:11:39;18.67;;;13.57;;
18612;SDS011;9436;52.152;21.032;2023-02-28T01:14:10;19.80;;;14.23;;
18612;SDS011;9436;52.152;21.032;2023-02-28T01:16:39;23.90;;;15.43;;
18612;SDS011;9436;52.152;21.032;2023-02-28T01:19:06;20.73;;;15.40;;
18612;SDS011;9436;52.152;21.032;2023-02-28T01:21:35;22.63;;;14.97;;
18612;SDS011;9436;52.152;21.032;2023-02-28T01:24:02;20.13;;;14.97;;
18612;SDS011;9436;52.152;21.032;2023-02-28T01:26:30;24.33;;;15.10;;
18612;SDS011;9436;52.152;21.032;2023-02-28T01:28:57;22.47;;;16.20;;
18612;SDS011;9436;52.152;21.032;2023-02-28T01:31:25;21.60;;;15.47;;
18612;SDS011;9436;52.152;21.032;2023-02-28T01:33:52;22.33;;;15.33;;
18612;SDS011;9436;52.152;21.032;2023-02-28T01:36:20;25.70;;;16.03;;
18612;SDS011;9436;52.152;21.032;2023-02-28T01:38:50;23.07;;;15.07;;
18612;SDS011;9436;52.152;21.032;2023-02-28T01:41:19;22.50;;;15.63;;
18612;SDS011;9436;52.152;21.032;2023-02-28T01:43:58;26.77;;;16.63;;
18612;SDS011;9436;52.152;21.032;2023-02-28T01:46:29;26.13;;;16.30;;
18612;SDS011;9436;52.152;21.032;2023-02-28T01:48:59;22.97;;;16.57;;
18612;SDS011;9436;52.152;21.032;2023-02-28T01:51:30;23.27;;;16.27;;
18612;SDS011;9436;52.152;21.032;2023-02-28T01:54:03;25.33;;;16.60;;
18612;SDS011;9436;52.152;21.032;2023-02-28T01:56:38;25.77;;;17.60;;
18612;SDS011;9436;52.152;21.032;2023-02-28T01:59:10;25.80;;;17.53;;
18612;SDS011;9436;52.152;21.032;2023-02-28T02:01:40;27.00;;;18.00;;
18612;SDS011;9436;52.152;21.032;2023-02-28T02:04:08;26.70;;;17.33;;
18612;SDS011;9436;52.152;21.032;2023-02-28T02:06:38;26.20;;;17.53;;
18612;SDS011;9436;52.152;21.032;2023-02-28T02:09:10;24.83;;;18.27;;
18612;SDS011;9436;52.152;21.032;2023-02-28T02:11:39;29.77;;;18.60;;
18612;SDS011;9436;52.152;21.032;2023-02-28T02:14:12;26.10;;;17.20;;
18612;SDS011;9436;52.152;21.032;2023-02-28T02:17:05;29.20;;;18.53;;
18612;SDS011;9436;52.152;21.032;2023-02-28T02:23:10;27.13;;;17.87;;
18612;SDS011;9436;52.152;21.032;2023-02-28T02:26:06;28.80;;;18.57;;
18612;SDS011;9436;52.152;21.032;2023-02-28T02:29:02;28.67;;;18.43;;
18612;SDS011;9436;52.152;21.032;2023-02-28T02:31:54;28.77;;;18.63;;
18612;SDS011;9436;52.152;21.032;2023-02-28T02:34:42;26.20;;;18.23;;
18612;SDS011;9436;52.152;21.032;2023-02-28T02:37:21;28.13;;;17.97;;
18612;SDS011;9436;52.152;21.032;2023-02-28T02:39:58;29.03;;;18.23;;
18612;SDS011;9436;52.152;21.032;2023-02-28T02:42:31;29.07;;;18.83;;
18612;SDS011;9436;52.152;21.032;2023-02-28T02:45:06;26.23;;;17.70;;
18612;SDS011;9436;52.152;21.032;2023-02-28T02:47:38;25.77;;;17.37;;
18612;SDS011;9436;52.152;21.032;2023-02-28T02:50:11;29.33;;;18.87;;
18612;SDS011;9436;52.152;21.032;2023-02-28T02:52:43;25.23;;;17.83;;
18612;SDS011;9436;52.152;21.032;2023-02-28T02:55:17;27.87;;;18.53;;
18612;SDS011;9436;52.152;21.032;2023-02-28T02:57:47;28.00;;;18.53;;
18612;SDS011;9436;52.152;21.032;2023-02-28T03:00:17;28.20;;;18.37;;
18612;SDS011;9436;52.152;21.032;2023-02-28T03:02:48;27.70;;;18.77;;
18612;SDS011;9436;52.152;21.032;2023-02-28T03:05:21;28.63;;;19.33;;
18612;SDS011;9436;52.152;21.032;2023-02-28T03:07:51;25.53;;;18.37;;
18612;SDS011;9436;52.152;21.032;2023-02-28T03:10:32;30.17;;;19.27;;
18612;SDS011;9436;52.152;21.032;2023-02-28T03:13:09;27.60;;;18.13;;
18612;SDS011;9436;52.152;21.032;2023-02-28T03:15:47;26.93;;;17.47;;
18612;SDS011;9436;52.152;21.032;2023-02-28T03:18:24;25.70;;;17.70;;
18612;SDS011;9436;52.152;21.032;2023-02-28T03:21:01;24.20;;;17.67;;
18612;SDS011;9436;52.152;21.032;2023-02-28T03:23:37;24.37;;;17.03;;
18612;SDS011;9436;52.152;21.032;2023-02-28T03:26:12;25.00;;;16.97;;
18612;SDS011;9436;52.152;21.032;2023-02-28T03:28:46;27.47;;;16.77;;
18612;SDS011;9436;52.152;21.032;2023-02-28T03:31:19;23.23;;;15.97;;
18612;SDS011;9436;52.152;21.032;2023-02-28T03:33:49;24.97;;;16.97;;
18612;SDS011;9436;52.152;21.032;2023-02-28T03:36:24;23.80;;;17.00;;
18612;SDS011;9436;52.152;21.032;2023-02-28T03:38:53;23.80;;;16.37;;
18612;SDS011;9436;52.152;21.032;2023-02-28T03:41:30;23.20;;;16.57;;
18612;SDS011;9436;52.152;21.032;2023-02-28T03:44:05;25.30;;;16.57;;
18612;SDS011;9436;52.152;21.032;2023-02-28T03:46:40;23.80;;;15.97;;
18612;SDS011;9436;52.152;21.032;2023-02-28T03:49:15;21.43;;;15.37;;
18612;SDS011;9436;52.152;21.032;2023-02-28T03:51:46;22.00;;;15.53;;
18612;SDS011;9436;52.152;21.032;2023-02-28T03:54:16;21.97;;;15.63;;
18612;SDS011;9436;52.152;21.032;2023-02-28T03:56:49;20.60;;;14.77;;
18612;SDS011;9436;52.152;21.032;2023-02-28T03:59:21;21.13;;;14.33;;
18612;SDS011;9436;52.152;21.032;2023-02-28T04:01:52;20.93;;;14.37;;
18612;SDS011;9436;52.152;21.032;2023-02-28T04:04:20;17.23;;;13.10;;
18612;SDS011;9436;52.152;21.032;2023-02-28T04:06:51;21.40;;;14.23;;
18612;SDS011;9436;52.152;21.032;2023-02-28T04:09:20;19.20;;;14.20;;
18612;SDS011;9436;52.152;21.032;2023-02-28T04:11:49;19.70;;;13.13;;
18612;SDS011;9436;52.152;21.032;2023-02-28T04:14:18;19.13;;;13.57;;
18612;SDS011;9436;52.152;21.032;2023-02-28T04:16:45;20.60;;;14.57;;
18612;SDS011;9436;52.152;21.032;2023-02-28T04:19:12;19.63;;;13.33;;
18612;SDS011;9436;52.152;21.032;2023-02-28T04:21:41;18.30;;;12.80;;
18612;SDS011;9436;52.152;21.032;2023-02-28T04:24:11;19.70;;;12.37;;
18612;SDS011;9436;52.152;21.032;2023-02-28T04:26:40;17.63;;;12.13;;
18612;SDS011;9436;52.152;21.032;2023-02-28T04:29:09;17.47;;;12.37;;
18612;SDS011;9436;52.152;21.032;2023-02-28T04:31:38;18.90;;;12.83;;
18612;SDS011;9436;52.152;21.032;2023-02-28T04:34:05;17.77;;;12.43;;
18612;SDS011;9436;52.152;21.032;2023-02-28T04:36:32;16.87;;;12.60;;
18612;SDS011;9436;52.152;21.032;2023-02-28T04:39:00;17.97;;;12.50;;
18612;SDS011;9436;52.152;21.032;2023-02-28T04:41:29;17.27;;;12.30;;
18612;SDS011;9436;52.152;21.032;2023-02-28T04:43:56;18.77;;;12.80;;
18612;SDS011;9436;52.152;21.032;2023-02-28T04:46:23;18.50;;;13.43;;
18612;SDS011;9436;52.152;21.032;2023-02-28T04:48:50;18.90;;;12.53;;
18612;SDS011;9436;52.152;21.032;2023-02-28T04:51:18;17.00;;;12.23;;
18612;SDS011;9436;52.152;21.032;2023-02-28T04:53:46;17.53;;;12.97;;
18612;SDS011;9436;52.152;21.032;2023-02-28T04:56:14;17.77;;;12.67;;
18612;SDS011;9436;52.152;21.032;2023-02-28T04:58:44;18.70;;;13.17;;
18612;SDS011;9436;52.152;21.032;2023-02-28T05:01:16;19.40;;;13.50;;
18612;SDS011;9436;52.152;21.032;2023-02-28T05:03:48;19.17;;;12.87;;
18612;SDS011;9436;52.152;21.032;2023-02-28T05:06:16;18.30;;;12.80;;
18612;SDS011;9436;52.152;21.032;2023-02-28T05:08:43;18.77;;;12.53;;
18612;SDS011;9436;52.152;21.032;2023-02-28T05:11:13;18.33;;;12.60;;
18612;SDS011;9436;52.152;21.032;2023-02-28T05:13:46;18.80;;;13.37;;
18612;SDS011;9436;52.152;21.032;2023-02-28T05:16:14;20.00;;;13.67;;
18612;SDS011;9436;52.152;21.032;2023-02-28T05:18:41;17.80;;;13.07;;
18612;SDS011;9436;52.152;21.032;2023-02-28T05:21:17;18.07;;;12.97;;
18612;SDS011;9436;52.152;21.032;2023-02-28T05:23:50;19.57;;;13.80;;
18612;SDS011;9436;52.152;21.032;2023-02-28T05:26:18;19.60;;;13.87;;
18612;SDS011;9436;52.152;21.032;2023-02-28T05:28:47;19.17;;;13.43;;
18612;SDS011;9436;52.152;21.032;2023-02-28T05:31:14;21.50;;;14.73;;
18612;SDS011;9436;52.152;21.032;2023-02-28T05:33:41;21.67;;;14.40;;
18612;SDS011;9436;52.152;21.032;2023-02-28T05:36:08;20.27;;;14.20;;
18612;SDS011;9436;52.152;21.032;2023-02-28T05:38:35;25.57;;;14.13;;
18612;SDS011;9436;52.152;21.032;2023-02-28T05:41:04;21.20;;;14.83;;
18612;SDS011;9436;52.152;21.032;2023-02-28T05:43:33;18.93;;;13.73;;
18612;SDS011;9436;52.152;21.032;2023-02-28T05:46:03;19.90;;;14.43;;
18612;SDS011;9436;52.152;21.032;2023-02-28T05:48:31;23.43;;;14.30;;
18612;SDS011;9436;52.152;21.032;2023-02-28T05:50:59;22.03;;;13.40;;
18612;SDS011;9436;52.152;21.032;2023-02-28T05:53:26;21.83;;;13.90;;
18612;SDS011;9436;52.152;21.032;2023-02-28T05:55:53;20.00;;;14.23;;
18612;SDS011;9436;52.152;21.032;2023-02-28T05:58:20;21.17;;;14.53;;
18612;SDS011;9436;52.152;21.032;2023-02-28T06:00:48;21.37;;;14.27;;
18612;SDS011;9436;52.152;21.032;2023-02-28T06:03:16;21.10;;;13.37;;
18612;SDS011;9436;52.152;21.032;2023-02-28T06:05:44;20.73;;;14.10;;
18612;SDS011;9436;52.152;21.032;2023-02-28T06:08:11;19.23;;;14.40;;
18612;SDS011;9436;52.152;21.032;2023-02-28T06:10:38;21.17;;;14.80;;
18612;SDS011;9436;52.152;21.032;2023-02-28T06:13:05;18.77;;;13.70;;
18612;SDS011;9436;52.152;21.032;2023-02-28T06:15:32;22.40;;;14.07;;
18612;SDS011;9436;52.152;21.032;2023-02-28T06:17:59;18.50;;;14.50;;
18612;SDS011;9436;52.152;21.032;2023-02-28T06:20:28;24.40;;;14.83;;
18612;SDS011;9436;52.152;21.032;2023-02-28T06:22:55;21.10;;;13.83;;
18612;SDS011;9436;52.152;21.032;2023-02-28T06:25:23;22.43;;;13.53;;
18612;SDS011;9436;52.152;21.032;2023-02-28T06:27:50;22.57;;;13.17;;
18612;SDS011;9436;52.152;21.032;2023-02-28T06:30:17;19.00;;;12.03;;
18612;SDS011;9436;52.152;21.032;2023-02-28T06:32:48;17.33;;;12.70;;
18612;SDS011;9436;52.152;21.032;2023-02-28T06:35:15;21.17;;;13.90;;
18612;SDS011;9436;52.152;21.032;2023-02-28T06:37:44;20.43;;;12.87;;
18612;SDS011;9436;52.152;21.032;2023-02-28T06:40:12;25.93;;;13.20;;
18612;SDS011;9436;52.152;21.032;2023-02-28T06:42:40;19.53;;;13.03;;
18612;SDS011;9436;52.152;21.032;2023-02-28T06:45:07;20.43;;;12.53;;
18612;SDS011;9436;52.152;21.032;2023-02-28T06:47:35;17.73;;;12.83;;
18612;SDS011;9436;52.152;21.032;2023-02-28T06:50:02;17.73;;;12.43;;
18612;SDS011;9436;52.152;21.032;2023-02-28T06:52:30;18.70;;;11.33;;
18612;SDS011;9436;52.152;21.032;2023-02-28T06:54:59;17.63;;;11.37;;
18612;SDS011;9436;52.152;21.032;2023-02-28T06:57:27;18.17;;;12.40;;
18612;SDS011;9436;52.152;21.032;2023-02-28T06:59:56;15.17;;;11.00;;
18612;SDS011;9436;52.152;21.032;2023-02-28T07:02:23;15.67;;;11.13;;
18612;SDS011;9436;52.152;21.032;2023-02-28T07:04:50;17.30;;;11.90;;
18612;SDS011;9436;52.152;21.032;2023-02-28T07:07:17;17.60;;;12.67;;
18612;SDS011;9436;52.152;21.032;2023-02-28T07:09:45;21.27;;;12.30;;
18612;SDS011;9436;52.152;21.032;2023-02-28T07:12:13;20.73;;;15.10;;
18612;SDS011;9436;52.152;21.032;2023-02-28T07:14:40;14.90;;;11.13;;
18612;SDS011;9436;52.152;21.032;2023-02-28T07:17:07;14.47;;;10.80;;
18612;SDS011;9436;52.152;21.032;2023-02-28T07:19:37;15.50;;;11.83;;
18612;SDS011;9436;52.152;21.032;2023-02-28T07:22:04;16.87;;;11.63;;
18612;SDS011;9436;52.152;21.032;2023-02-28T07:24:31;18.60;;;11.50;;
18612;SDS011;9436;52.152;21.032;2023-02-28T07:26:58;18.07;;;11.27;;
18612;SDS011;9436;52.152;21.032;2023-02-28T07:29:27;16.03;;;10.20;;
18612;SDS011;9436;52.152;21.032;2023-02-28T07:31:54;16.73;;;10.10;;
18612;SDS011;9436;52.152;21.032;2023-02-28T07:34:22;15.43;;;10.27;;
18612;SDS011;9436;52.152;21.032;2023-02-28T07:36:52;18.03;;;9.87;;
18612;SDS011;9436;52.152;21.032;2023-02-28T07:39:20;18.27;;;10.20;;
18612;SDS011;9436;52.152;21.032;2023-02-28T07:41:47;14.37;;;9.27;;
18612;SDS011;9436;52.152;21.032;2023-02-28T07:44:15;13.17;;;8.63;;
18612;SDS011;9436;52.152;21.032;2023-02-28T07:46:43;12.27;;;8.13;;
18612;SDS011;9436;52.152;21.032;2023-02-28T07:49:10;10.63;;;7.63;;
18612;SDS011;9436;52.152;21.032;2023-02-28T07:51:38;11.53;;;7.87;;
18612;SDS011;9436;52.152;21.032;2023-02-28T07:54:05;7.83;;;6.30;;
18612;SDS011;9436;52.152;21.032;2023-02-28T07:56:32;6.97;;;6.07;;
18612;SDS011;9436;52.152;21.032;2023-02-28T07:58:59;7.93;;;6.50;;
18612;SDS011;9436;52.152;21.032;2023-02-28T08:01:27;7.37;;;6.20;;
18612;SDS011;9436;52.152;21.032;2023-02-28T08:03:56;8.07;;;6.50;;
18612;SDS011;9436;52.152;21.032;2023-02-28T08:06:23;9.00;;;7.23;;
18612;SDS011;9436;52.152;21.032;2023-02-28T08:08:52;9.90;;;6.83;;
18612;SDS011;9436;52.152;21.032;2023-02-28T08:11:21;10.03;;;7.43;;
18612;SDS011;9436;52.152;21.032;2023-02-28T08:13:48;10.80;;;7.37;;
18612;SDS011;9436;52.152;21.032;2023-02-28T08:16:15;10.60;;;7.43;;
18612;SDS011;9436;52.152;21.032;2023-02-28T08:18:47;8.50;;;7.67;;
18612;SDS011;9436;52.152;21.032;2023-02-28T08:21:16;10.80;;;7.77;;
18612;SDS011;9436;52.152;21.032;2023-02-28T08:23:45;10.57;;;8.00;;
18612;SDS011;9436;52.152;21.032;2023-02-28T08:26:13;9.20;;;8.00;;
18612;SDS011;9436;52.152;21.032;2023-02-28T08:28:41;10.87;;;7.77;;
18612;SDS011;9436;52.152;21.032;2023-02-28T08:31:09;10.30;;;7.50;;
18612;SDS011;9436;52.152;21.032;2023-02-28T08:33:38;11.80;;;8.37;;
18612;SDS011;9436;52.152;21.032;2023-02-28T08:36:06;10.87;;;8.17;;
18612;SDS011;9436;52.152;21.032;2023-02-28T08:38:36;11.60;;;8.80;;
18612;SDS011;9436;52.152;21.032;2023-02-28T08:41:04;11.07;;;8.63;;
18612;SDS011;9436;52.152;21.032;2023-02-28T08:43:32;10.60;;;7.97;;
18612;SDS011;9436;52.152;21.032;2023-02-28T08:46:00;17.13;;;8.03;;
18612;SDS011;9436;52.152;21.032;2023-02-28T08:48:28;9.37;;;7.43;;
18612;SDS011;9436;52.152;21.032;2023-02-28T08:50:56;8.50;;;7.20;;
18612;SDS011;9436;52.152;21.032;2023-02-28T08:53:23;8.67;;;7.30;;
18612;SDS011;9436;52.152;21.032;2023-02-28T08:55:58;9.17;;;7.63;;
18612;SDS011;9436;52.152;21.032;2023-02-28T08:58:26;8.53;;;7.60;;
18612;SDS011;9436;52.152;21.032;2023-02-28T09:00:54;10.27;;;7.70;;
18612;SDS011;9436;52.152;21.032;2023-02-28T09:03:21;11.40;;;7.63;;
18612;SDS011;9436;52.152;21.032;2023-02-28T09:05:53;11.13;;;7.60;;
18612;SDS011;9436;52.152;21.032;2023-02-28T09:08:21;9.40;;;7.43;;
18612;SDS011;9436;52.152;21.032;2023-02-28T09:10:49;11.63;;;8.47;;
18612;SDS011;9436;52.152;21.032;2023-02-28T09:13:18;9.87;;;7.63;;
18612;SDS011;9436;52.152;21.032;2023-02-28T09:15:46;10.67;;;7.97;;
18612;SDS011;9436;52.152;21.032;2023-02-28T09:18:13;9.30;;;7.67;;
18612;SDS011;9436;52.152;21.032;2023-02-28T09:20:41;9.10;;;7.20;;
18612;SDS011;9436;52.152;21.032;2023-02-28T09:23:10;9.63;;;6.83;;
18612;SDS011;9436;52.152;21.032;2023-02-28T09:25:40;9.43;;;7.60;;
18612;SDS011;9436;52.152;21.032;2023-02-28T09:28:12;10.57;;;7.87;;
18612;SDS011;9436;52.152;21.032;2023-02-28T09:30:43;8.83;;;7.50;;
18612;SDS011;9436;52.152;21.032;2023-02-28T09:33:12;9.57;;;7.67;;
18612;SDS011;9436;52.152;21.032;2023-02-28T09:35:39;9.50;;;8.07;;
18612;SDS011;9436;52.152;21.032;2023-02-28T09:38:06;9.27;;;7.87;;
18612;SDS011;9436;52.152;21.032;2023-02-28T09:40:35;10.53;;;7.87;;
18612;SDS011;9436;52.152;21.032;2023-02-28T09:43:03;11.30;;;8.10;;
18612;SDS011;9436;52.152;21.032;2023-02-28T09:45:32;10.50;;;8.10;;
18612;SDS011;9436;52.152;21.032;2023-02-28T09:48:06;10.57;;;8.23;;
18612;SDS011;9436;52.152;21.032;2023-02-28T09:50:41;8.50;;;7.13;;
18612;SDS011;9436;52.152;21.032;2023-02-28T09:53:15;18.67;;;11.93;;
18612;SDS011;9436;52.152;21.032;2023-02-28T09:55:48;9.47;;;7.53;;
18612;SDS011;9436;52.152;21.032;2023-02-28T09:58:20;9.33;;;7.30;;
18612;SDS011;9436;52.152;21.032;2023-02-28T10:00:55;8.40;;;7.33;;
18612;SDS011;9436;52.152;21.032;2023-02-28T10:03:30;8.67;;;7.77;;
18612;SDS011;9436;52.152;21.032;2023-02-28T10:06:03;9.80;;;7.83;;
18612;SDS011;9436;52.152;21.032;2023-02-28T10:08:36;9.67;;;7.50;;
18612;SDS011;9436;52.152;21.032;2023-02-28T10:11:09;9.93;;;7.87;;
18612;SDS011;9436;52.152;21.032;2023-02-28T10:13:40;9.53;;;8.07;;
18612;SDS011;9436;52.152;21.032;2023-02-28T10:16:20;10.20;;;7.40;;
18612;SDS011;9436;52.152;21.032;2023-02-28T10:18:54;9.80;;;8.50;;
18612;SDS011;9436;52.152;21.032;2023-02-28T10:21:28;9.97;;;8.13;;
18612;SDS011;9436;52.152;21.032;2023-02-28T10:24:02;9.93;;;7.80;;
18612;SDS011;9436;52.152;21.032;2023-02-28T10:26:37;9.20;;;7.77;;
18612;SDS011;9436;52.152;21.032;2023-02-28T10:29:04;10.70;;;8.10;;
18612;SDS011;9436;52.152;21.032;2023-02-28T10:31:34;9.37;;;8.30;;
18612;SDS011;9436;52.152;21.032;2023-02-28T10:34:02;10.63;;;8.27;;
18612;SDS011;9436;52.152;21.032;2023-02-28T10:36:31;9.67;;;8.10;;
18612;SDS011;9436;52.152;21.032;2023-02-28T10:38:58;10.03;;;8.27;;
18612;SDS011;9436;52.152;21.032;2023-02-28T10:41:27;9.33;;;8.37;;
18612;SDS011;9436;52.152;21.032;2023-02-28T10:44:12;11.73;;;9.07;;
18612;SDS011;9436;52.152;21.032;2023-02-28T10:46:41;10.27;;;9.17;;
18612;SDS011;9436;52.152;21.032;2023-02-28T10:49:14;10.37;;;8.87;;
18612;SDS011;9436;52.152;21.032;2023-02-28T10:51:44;11.80;;;9.30;;
18612;SDS011;9436;52.152;21.032;2023-02-28T10:54:18;11.97;;;9.13;;
18612;SDS011;9436;52.152;21.032;2023-02-28T10:59:44;11.57;;;9.70;;
18612;SDS011;9436;52.152;21.032;2023-02-28T11:02:28;11.77;;;9.57;;
18612;SDS011;9436;52.152;21.032;2023-02-28T11:04:58;11.20;;;9.13;;
18612;SDS011;9436;52.152;21.032;2023-02-28T11:07:26;11.77;;;9.20;;
18612;SDS011;9436;52.152;21.032;2023-02-28T11:09:55;10.07;;;8.97;;
18612;SDS011;9436;52.152;21.032;2023-02-28T11:12:25;13.10;;;9.87;;
18612;SDS011;9436;52.152;21.032;2023-02-28T11:14:55;12.33;;;9.70;;
18612;SDS011;9436;52.152;21.032;2023-02-28T11:17:25;12.63;;;10.27;;
18612;SDS011;9436;52.152;21.032;2023-02-28T11:19:54;10.90;;;9.80;;
18612;SDS011;9436;52.152;21.032;2023-02-28T11:22:26;12.73;;;10.20;;
18612;SDS011;9436;52.152;21.032;2023-02-28T11:24:56;11.53;;;10.07;;
18612;SDS011;9436;52.152;21.032;2023-02-28T11:27:40;13.17;;;9.80;;
18612;SDS011;9436;52.152;21.032;2023-02-28T11:30:27;11.30;;;10.10;;
18612;SDS011;9436;52.152;21.032;2023-02-28T11:32:57;13.00;;;9.57;;
18612;SDS011;9436;52.152;21.032;2023-02-28T11:35:26;12.57;;;10.27;;
18612;SDS011;9436;52.152;21.032;2023-02-28T11:37:58;12.23;;;10.50;;
18612;SDS011;9436;52.152;21.032;2023-02-28T11:40:28;12.53;;;10.17;;
18612;SDS011;9436;52.152;21.032;2023-02-28T11:43:10;13.80;;;9.93;;
18612;SDS011;9436;52.152;21.032;2023-02-28T11:48:33;18.87;;;11.30;;
18612;SDS011;9436;52.152;21.032;2023-02-28T11:51:13;12.53;;;10.50;;
18612;SDS011;9436;52.152;21.032;2023-02-28T11:53:52;11.73;;;10.10;;
18612;SDS011;9436;52.152;21.032;2023-02-28T11:56:31;11.97;;;10.20;;
18612;SDS011;9436;52.152;21.032;2023-02-28T11:59:05;11.60;;;10.03;;
18612;SDS011;9436;52.152;21.032;2023-02-28T12:01:51;12.60;;;10.23;;
18612;SDS011;9436;52.152;21.032;2023-02-28T12:04:30;12.70;;;10.57;;
18612;SDS011;9436;52.152;21.032;2023-02-28T12:07:09;12.73;;;11.37;;
18612;SDS011;9436;52.152;21.032;2023-02-28T12:09:50;16.63;;;10.50;;
18612;SDS011;9436;52.152;21.032;2023-02-28T12:12:31;11.80;;;10.40;;
18612;SDS011;9436;52.152;21.032;2023-02-28T12:15:17;13.07;;;10.50;;
18612;SDS011;9436;52.152;21.032;2023-02-28T12:18:11;11.93;;;10.27;;
18612;SDS011;9436;52.152;21.032;2023-02-28T12:20:49;12.73;;;10.50;;
18612;SDS011;9436;52.152;21.032;2023-02-28T12:23:34;13.03;;;11.13;;
18612;SDS011;9436;52.152;21.032;2023-02-28T12:26:21;12.53;;;10.53;;
18612;SDS011;9436;52.152;21.032;2023-02-28T12:28:58;13.60;;;11.27;;
18612;SDS011;9436;52.152;21.032;2023-02-28T12:31:31;12.90;;;10.67;;
18612;SDS011;9436;52.152;21.032;2023-02-28T12:34:03;13.70;;;10.60;;
18612;SDS011;9436;52.152;21.032;2023-02-28T12:36:35;13.13;;;10.70;;
18612;SDS011;9436;52.152;21.032;2023-02-28T12:39:06;11.63;;;10.07;;
18612;SDS011;9436;52.152;21.032;2023-02-28T12:41:40;12.77;;;9.87;;
18612;SDS011;9436;52.152;21.032;2023-02-28T12:44:12;12.90;;;10.30;;
18612;SDS011;9436;52.152;21.032;2023-02-28T12:46:44;13.77;;;10.50;;
18612;SDS011;9436;52.152;21.032;2023-02-28T12:49:16;12.77;;;10.37;;
18612;SDS011;9436;52.152;21.032;2023-02-28T12:51:48;12.57;;;9.90;;
18612;SDS011;9436;52.152;21.032;2023-02-28T12:54:18;12.87;;;10.43;;
18612;SDS011;9436;52.152;21.032;2023-02-28T12:56:54;12.43;;;9.73;;
18612;SDS011;9436;52.152;21.032;2023-02-28T12:59:31;11.50;;;10.30;;
18612;SDS011;9436;52.152;21.032;2023-02-28T13:05:22;13.20;;;10.13;;
18612;SDS011;9436;52.152;21.032;2023-02-28T13:08:21;13.07;;;10.40;;
18612;SDS011;9436;52.152;21.032;2023-02-28T13:11:02;11.37;;;9.93;;
18612;SDS011;9436;52.152;21.032;2023-02-28T13:13:31;13.23;;;9.87;;
18612;SDS011;9436;52.152;21.032;2023-02-28T13:15:59;11.70;;;8.97;;
18612;SDS011;9436;52.152;21.032;2023-02-28T13:18:33;10.60;;;9.50;;
18612;SDS011;9436;52.152;21.032;2023-02-28T13:21:04;10.47;;;9.33;;
18612;SDS011;9436;52.152;21.032;2023-02-28T13:23:38;10.97;;;9.33;;
18612;SDS011;9436;52.152;21.032;2023-02-28T13:29:31;14.60;;;9.87;;
18612;SDS011;9436;52.152;21.032;2023-02-28T13:40:51;12.23;;;9.60;;
18612;SDS011;9436;52.152;21.032;2023-02-28T13:43:18;12.57;;;9.70;;
18612;SDS011;9436;52.152;21.032;2023-02-28T13:48:36;12.57;;;9.40;;
18612;SDS011;9436;52.152;21.032;2023-02-28T13:51:27;13.10;;;10.10;;
18612;SDS011;9436;52.152;21.032;2023-02-28T13:54:07;11.43;;;10.23;;
18612;SDS011;9436;52.152;21.032;2023-02-28T13:56:52;13.23;;;9.53;;
18612;SDS011;9436;52.152;21.032;2023-02-28T13:59:30;13.53;;;10.40;;
18612;SDS011;9436;52.152;21.032;2023-02-28T14:02:17;15.00;;;11.03;;
18612;SDS011;9436;52.152;21.032;2023-02-28T14:05:04;14.10;;;10.97;;
18612;SDS011;9436;52.152;21.032;2023-02-28T14:07:38;12.53;;;10.87;;
18612;SDS011;9436;52.152;21.032;2023-02-28T14:10:15;12.30;;;10.37;;
18612;SDS011;9436;52.152;21.032;2023-02-28T14:13:00;13.50;;;10.07;;
18612;SDS011;9436;52.152;21.032;2023-02-28T14:15:38;15.73;;;10.27;;
18612;SDS011;9436;52.152;21.032;2023-02-28T14:18:19;13.17;;;10.70;;
18612;SDS011;9436;52.152;21.032;2023-02-28T14:20:49;12.43;;;9.70;;
18612;SDS011;9436;52.152;21.032;2023-02-28T14:29:38;14.23;;;10.83;;
18612;SDS011;9436;52.152;21.032;2023-02-28T14:32:22;14.57;;;11.00;;
18612;SDS011;9436;52.152;21.032;2023-02-28T14:34:58;12.57;;;9.90;;
18612;SDS011;9436;52.152;21.032;2023-02-28T14:37:38;11.30;;;10.10;;
18612;SDS011;9436;52.152;21.032;2023-02-28T14:40:11;16.80;;;10.53;;
18612;SDS011;9436;52.152;21.032;2023-02-28T14:42:45;13.63;;;10.17;;
18612;SDS011;9436;52.152;21.032;2023-02-28T14:45:17;14.67;;;10.27;;
18612;SDS011;9436;52.152;21.032;2023-02-28T14:47:46;14.80;;;10.43;;
18612;SDS011;9436;52.152;21.032;2023-02-28T14:50:19;15.93;;;10.43;;
18612;SDS011;9436;52.152;21.032;2023-02-28T14:52:47;18.33;;;10.57;;
18612;SDS011;9436;52.152;21.032;2023-02-28T14:55:18;13.67;;;10.13;;
18612;SDS011;9436;52.152;21.032;2023-02-28T14:57:52;13.57;;;10.07;;
18612;SDS011;9436;52.152;21.032;2023-02-28T15:00:22;12.40;;;10.40;;
18612;SDS011;9436;52.152;21.032;2023-02-28T15:02:50;12.43;;;10.33;;
18612;SDS011;9436;52.152;21.032;2023-02-28T15:05:30;13.30;;;10.70;;
18612;SDS011;9436;52.152;21.032;2023-02-28T15:08:05;14.60;;;11.17;;
18612;SDS011;9436;52.152;21.032;2023-02-28T15:10:36;16.77;;;10.30;;
18612;SDS011;9436;52.152;21.032;2023-02-28T15:13:06;14.07;;;10.87;;
18612;SDS011;9436;52.152;21.032;2023-02-28T15:15:40;15.07;;;12.25;;
18612;SDS011;9436;52.152;21.032;2023-02-28T15:18:14;15.93;;;12.00;;
18612;SDS011;9436;52.152;21.032;2023-02-28T15:20:51;17.10;;;11.80;;
18612;SDS011;9436;52.152;21.032;2023-02-28T15:23:19;17.30;;;11.57;;
18612;SDS011;9436;52.152;21.032;2023-02-28T15:25:47;15.97;;;12.03;;